sensor_id;sensor_type;location;lat;lon;timestamp;P1;durP1;ratioP1;P2;durP2;ratioP2
18378;SDS011;27025;51.986;5.984;2023-02-25T00:00:28;14.03;;;3.73;;
18378;SDS011;27025;51.986;5.984;2023-02-25T00:02:58;13.17;;;3.30;;
18378;SDS011;27025;51.986;5.984;2023-02-25T00:05:24;17.60;;;3.60;;
18378;SDS011;27025;51.986;5.984;2023-02-25T00:07:50;18.07;;;3.90;;
18378;SDS011;27025;51.986;5.984;2023-02-25T00:10:16;14.60;;;3.53;;
18378;SDS011;27025;51.986;5.984;2023-02-25T00:12:43;21.17;;;3.73;;
18378;SDS011;27025;51.986;5.984;2023-02-25T00:15:09;19.33;;;3.80;;
18378;SDS011;27025;51.986;5.984;2023-02-25T00:17:36;18.80;;;3.93;;
18378;SDS011;27025;51.986;5.984;2023-02-25T00:20:04;16.43;;;3.63;;
18378;SDS011;27025;51.986;5.984;2023-02-25T00:22:33;18.70;;;3.37;;
18378;SDS011;27025;51.986;5.984;2023-02-25T00:24:59;16.60;;;3.70;;
18378;SDS011;27025;51.986;5.984;2023-02-25T00:27:26;19.80;;;4.23;;
18378;SDS011;27025;51.986;5.984;2023-02-25T00:29:53;19.30;;;3.73;;
18378;SDS011;27025;51.986;5.984;2023-02-25T00:32:20;18.10;;;3.30;;
18378;SDS011;27025;51.986;5.984;2023-02-25T00:34:46;25.63;;;4.27;;
18378;SDS011;27025;51.986;5.984;2023-02-25T00:37:12;16.97;;;3.67;;
18378;SDS011;27025;51.986;5.984;2023-02-25T00:39:38;18.43;;;4.07;;
18378;SDS011;27025;51.986;5.984;2023-02-25T00:42:13;22.30;;;3.73;;
18378;SDS011;27025;51.986;5.984;2023-02-25T00:44:42;21.83;;;4.10;;
18378;SDS011;27025;51.986;5.984;2023-02-25T00:47:08;17.07;;;3.13;;
18378;SDS011;27025;51.986;5.984;2023-02-25T00:49:34;17.43;;;3.83;;
18378;SDS011;27025;51.986;5.984;2023-02-25T00:52:00;17.47;;;3.47;;
18378;SDS011;27025;51.986;5.984;2023-02-25T00:54:26;15.40;;;3.60;;
18378;SDS011;27025;51.986;5.984;2023-02-25T00:56:52;17.60;;;4.20;;
18378;SDS011;27025;51.986;5.984;2023-02-25T00:59:19;23.60;;;3.70;;
18378;SDS011;27025;51.986;5.984;2023-02-25T01:01:45;19.23;;;4.30;;
18378;SDS011;27025;51.986;5.984;2023-02-25T01:04:11;20.00;;;3.83;;
18378;SDS011;27025;51.986;5.984;2023-02-25T01:06:37;23.50;;;4.47;;
18378;SDS011;27025;51.986;5.984;2023-02-25T01:09:04;19.73;;;3.60;;
18378;SDS011;27025;51.986;5.984;2023-02-25T01:11:32;18.93;;;3.73;;
18378;SDS011;27025;51.986;5.984;2023-02-25T01:13:59;19.17;;;4.33;;
18378;SDS011;27025;51.986;5.984;2023-02-25T01:16:27;19.10;;;4.67;;
18378;SDS011;27025;51.986;5.984;2023-02-25T01:18:55;25.67;;;4.83;;
18378;SDS011;27025;51.986;5.984;2023-02-25T01:21:22;20.10;;;4.40;;
18378;SDS011;27025;51.986;5.984;2023-02-25T01:23:52;21.83;;;3.87;;
18378;SDS011;27025;51.986;5.984;2023-02-25T01:26:22;15.70;;;3.67;;
18378;SDS011;27025;51.986;5.984;2023-02-25T01:28:48;19.70;;;3.57;;
18378;SDS011;27025;51.986;5.984;2023-02-25T01:31:17;26.10;;;3.83;;
18378;SDS011;27025;51.986;5.984;2023-02-25T01:33:44;21.63;;;4.40;;
18378;SDS011;27025;51.986;5.984;2023-02-25T01:36:10;22.93;;;4.03;;
18378;SDS011;27025;51.986;5.984;2023-02-25T01:38:36;20.83;;;4.10;;
18378;SDS011;27025;51.986;5.984;2023-02-25T01:41:02;18.17;;;3.53;;
18378;SDS011;27025;51.986;5.984;2023-02-25T01:43:28;20.03;;;3.73;;
18378;SDS011;27025;51.986;5.984;2023-02-25T01:45:54;22.10;;;4.00;;
18378;SDS011;27025;51.986;5.984;2023-02-25T01:48:24;19.00;;;4.17;;
18378;SDS011;27025;51.986;5.984;2023-02-25T01:50:53;19.00;;;3.80;;
18378;SDS011;27025;51.986;5.984;2023-02-25T01:53:21;24.73;;;4.03;;
18378;SDS011;27025;51.986;5.984;2023-02-25T01:55:48;13.30;;;3.47;;
18378;SDS011;27025;51.986;5.984;2023-02-25T01:58:14;22.70;;;3.90;;
18378;SDS011;27025;51.986;5.984;2023-02-25T02:00:41;13.30;;;2.97;;
18378;SDS011;27025;51.986;5.984;2023-02-25T02:03:08;18.83;;;3.50;;
18378;SDS011;27025;51.986;5.984;2023-02-25T02:06:02;20.60;;;4.03;;
18378;SDS011;27025;51.986;5.984;2023-02-25T02:08:26;19.97;;;3.90;;
18378;SDS011;27025;51.986;5.984;2023-02-25T02:10:52;15.17;;;3.10;;
18378;SDS011;27025;51.986;5.984;2023-02-25T02:13:20;16.53;;;3.37;;
18378;SDS011;27025;51.986;5.984;2023-02-25T02:15:49;16.40;;;3.53;;
18378;SDS011;27025;51.986;5.984;2023-02-25T02:18:17;14.37;;;3.07;;
18378;SDS011;27025;51.986;5.984;2023-02-25T02:33:47;17.27;;;3.03;;
18378;SDS011;27025;51.986;5.984;2023-02-25T02:38:49;13.80;;;3.00;;
18378;SDS011;27025;51.986;5.984;2023-02-25T02:43:51;13.60;;;2.97;;
18378;SDS011;27025;51.986;5.984;2023-02-25T02:46:23;15.83;;;3.00;;
18378;SDS011;27025;51.986;5.984;2023-02-25T02:49:12;13.60;;;2.60;;
18378;SDS011;27025;51.986;5.984;2023-02-25T02:51:37;17.13;;;3.50;;
18378;SDS011;27025;51.986;5.984;2023-02-25T02:54:05;16.80;;;3.17;;
18378;SDS011;27025;51.986;5.984;2023-02-25T02:56:34;12.70;;;3.07;;
18378;SDS011;27025;51.986;5.984;2023-02-25T02:59:04;16.23;;;3.27;;
18378;SDS011;27025;51.986;5.984;2023-02-25T03:01:40;19.23;;;3.53;;
18378;SDS011;27025;51.986;5.984;2023-02-25T03:04:08;14.80;;;3.03;;
18378;SDS011;27025;51.986;5.984;2023-02-25T03:06:36;18.70;;;3.10;;
18378;SDS011;27025;51.986;5.984;2023-02-25T03:09:25;22.87;;;3.50;;
18378;SDS011;27025;51.986;5.984;2023-02-25T03:11:49;24.07;;;3.80;;
18378;SDS011;27025;51.986;5.984;2023-02-25T03:14:15;18.80;;;3.37;;
18378;SDS011;27025;51.986;5.984;2023-02-25T03:16:43;14.93;;;3.00;;
18378;SDS011;27025;51.986;5.984;2023-02-25T03:19:14;18.47;;;3.40;;
18378;SDS011;27025;51.986;5.984;2023-02-25T03:21:41;21.37;;;3.37;;
18378;SDS011;27025;51.986;5.984;2023-02-25T03:24:14;16.07;;;3.53;;
18378;SDS011;27025;51.986;5.984;2023-02-25T03:26:46;17.47;;;3.57;;
18378;SDS011;27025;51.986;5.984;2023-02-25T03:29:14;21.80;;;3.60;;
18378;SDS011;27025;51.986;5.984;2023-02-25T03:31:42;19.47;;;3.90;;
18378;SDS011;27025;51.986;5.984;2023-02-25T03:34:20;21.90;;;3.53;;
18378;SDS011;27025;51.986;5.984;2023-02-25T03:36:52;20.23;;;3.80;;
18378;SDS011;27025;51.986;5.984;2023-02-25T03:39:21;19.00;;;3.60;;
18378;SDS011;27025;51.986;5.984;2023-02-25T03:41:52;21.90;;;3.60;;
18378;SDS011;27025;51.986;5.984;2023-02-25T03:44:41;23.33;;;3.83;;
18378;SDS011;27025;51.986;5.984;2023-02-25T03:47:06;21.50;;;4.57;;
18378;SDS011;27025;51.986;5.984;2023-02-25T03:49:39;22.60;;;4.53;;
18378;SDS011;27025;51.986;5.984;2023-02-25T03:52:10;16.53;;;3.43;;
18378;SDS011;27025;51.986;5.984;2023-02-25T03:54:37;20.57;;;3.93;;
18378;SDS011;27025;51.986;5.984;2023-02-25T03:57:04;19.23;;;4.23;;
18378;SDS011;27025;51.986;5.984;2023-02-25T03:59:30;20.37;;;3.63;;
18378;SDS011;27025;51.986;5.984;2023-02-25T04:01:56;20.33;;;3.77;;
18378;SDS011;27025;51.986;5.984;2023-02-25T04:04:23;21.80;;;4.60;;
18378;SDS011;27025;51.986;5.984;2023-02-25T04:06:49;17.37;;;3.87;;
18378;SDS011;27025;51.986;5.984;2023-02-25T04:09:15;19.33;;;4.00;;
18378;SDS011;27025;51.986;5.984;2023-02-25T04:11:41;23.23;;;3.93;;
18378;SDS011;27025;51.986;5.984;2023-02-25T04:14:07;23.87;;;4.10;;
18378;SDS011;27025;51.986;5.984;2023-02-25T04:16:33;26.57;;;4.73;;
18378;SDS011;27025;51.986;5.984;2023-02-25T04:18:59;20.30;;;4.47;;
18378;SDS011;27025;51.986;5.984;2023-02-25T04:21:26;24.23;;;4.13;;
18378;SDS011;27025;51.986;5.984;2023-02-25T04:23:53;19.20;;;4.83;;
18378;SDS011;27025;51.986;5.984;2023-02-25T04:26:19;20.07;;;4.00;;
18378;SDS011;27025;51.986;5.984;2023-02-25T04:28:45;18.27;;;3.63;;
18378;SDS011;27025;51.986;5.984;2023-02-25T04:31:11;20.67;;;3.77;;
18378;SDS011;27025;51.986;5.984;2023-02-25T04:33:37;19.03;;;3.80;;
18378;SDS011;27025;51.986;5.984;2023-02-25T04:36:03;21.60;;;4.20;;
18378;SDS011;27025;51.986;5.984;2023-02-25T04:38:30;20.10;;;4.00;;
18378;SDS011;27025;51.986;5.984;2023-02-25T04:40:56;21.27;;;4.10;;
18378;SDS011;27025;51.986;5.984;2023-02-25T04:43:22;25.67;;;4.07;;
18378;SDS011;27025;51.986;5.984;2023-02-25T04:45:47;22.60;;;3.80;;
18378;SDS011;27025;51.986;5.984;2023-02-25T04:48:13;24.10;;;4.30;;
18378;SDS011;27025;51.986;5.984;2023-02-25T04:50:40;17.43;;;3.40;;
18378;SDS011;27025;51.986;5.984;2023-02-25T04:53:06;24.10;;;4.07;;
18378;SDS011;27025;51.986;5.984;2023-02-25T04:55:34;21.77;;;4.30;;
18378;SDS011;27025;51.986;5.984;2023-02-25T04:58:00;23.77;;;5.03;;
18378;SDS011;27025;51.986;5.984;2023-02-25T05:00:26;23.27;;;4.10;;
18378;SDS011;27025;51.986;5.984;2023-02-25T05:02:52;24.57;;;4.33;;
18378;SDS011;27025;51.986;5.984;2023-02-25T05:05:18;18.80;;;3.83;;
18378;SDS011;27025;51.986;5.984;2023-02-25T05:07:44;19.77;;;4.07;;
18378;SDS011;27025;51.986;5.984;2023-02-25T05:10:11;20.23;;;4.03;;
18378;SDS011;27025;51.986;5.984;2023-02-25T05:12:39;23.87;;;3.93;;
18378;SDS011;27025;51.986;5.984;2023-02-25T05:15:05;26.00;;;4.57;;
18378;SDS011;27025;51.986;5.984;2023-02-25T05:17:32;22.70;;;4.47;;
18378;SDS011;27025;51.986;5.984;2023-02-25T05:19:59;17.17;;;3.80;;
18378;SDS011;27025;51.986;5.984;2023-02-25T05:22:26;21.53;;;3.73;;
18378;SDS011;27025;51.986;5.984;2023-02-25T05:24:52;20.53;;;4.20;;
18378;SDS011;27025;51.986;5.984;2023-02-25T05:27:18;25.83;;;4.53;;
18378;SDS011;27025;51.986;5.984;2023-02-25T05:29:44;17.33;;;3.63;;
18378;SDS011;27025;51.986;5.984;2023-02-25T05:32:10;16.13;;;3.73;;
18378;SDS011;27025;51.986;5.984;2023-02-25T05:34:36;16.60;;;4.00;;
18378;SDS011;27025;51.986;5.984;2023-02-25T05:37:02;22.27;;;4.33;;
18378;SDS011;27025;51.986;5.984;2023-02-25T05:39:28;19.90;;;3.80;;
18378;SDS011;27025;51.986;5.984;2023-02-25T05:41:54;20.07;;;3.60;;
18378;SDS011;27025;51.986;5.984;2023-02-25T05:44:20;16.03;;;3.50;;
18378;SDS011;27025;51.986;5.984;2023-02-25T05:46:46;21.10;;;3.63;;
18378;SDS011;27025;51.986;5.984;2023-02-25T05:49:12;20.23;;;4.17;;
18378;SDS011;27025;51.986;5.984;2023-02-25T05:51:38;18.93;;;3.50;;
18378;SDS011;27025;51.986;5.984;2023-02-25T05:54:04;26.50;;;3.93;;
18378;SDS011;27025;51.986;5.984;2023-02-25T05:56:30;27.47;;;3.60;;
18378;SDS011;27025;51.986;5.984;2023-02-25T05:58:56;15.80;;;3.23;;
18378;SDS011;27025;51.986;5.984;2023-02-25T06:01:23;21.43;;;3.70;;
18378;SDS011;27025;51.986;5.984;2023-02-25T06:03:51;20.67;;;3.73;;
18378;SDS011;27025;51.986;5.984;2023-02-25T06:06:18;17.33;;;3.70;;
18378;SDS011;27025;51.986;5.984;2023-02-25T06:08:47;16.60;;;3.67;;
18378;SDS011;27025;51.986;5.984;2023-02-25T06:11:17;21.83;;;3.90;;
18378;SDS011;27025;51.986;5.984;2023-02-25T06:13:44;22.73;;;4.13;;
18378;SDS011;27025;51.986;5.984;2023-02-25T06:16:11;26.67;;;4.30;;
18378;SDS011;27025;51.986;5.984;2023-02-25T06:18:38;21.83;;;3.57;;
18378;SDS011;27025;51.986;5.984;2023-02-25T06:21:05;16.47;;;3.50;;
18378;SDS011;27025;51.986;5.984;2023-02-25T06:23:32;20.77;;;4.03;;
18378;SDS011;27025;51.986;5.984;2023-02-25T06:25:58;15.97;;;3.80;;
18378;SDS011;27025;51.986;5.984;2023-02-25T06:28:24;22.57;;;4.10;;
18378;SDS011;27025;51.986;5.984;2023-02-25T06:30:50;15.07;;;3.40;;
18378;SDS011;27025;51.986;5.984;2023-02-25T06:33:16;16.93;;;3.23;;
18378;SDS011;27025;51.986;5.984;2023-02-25T06:35:42;15.23;;;3.30;;
18378;SDS011;27025;51.986;5.984;2023-02-25T06:38:09;16.90;;;3.60;;
18378;SDS011;27025;51.986;5.984;2023-02-25T06:40:36;16.20;;;3.30;;
18378;SDS011;27025;51.986;5.984;2023-02-25T06:43:02;20.20;;;3.60;;
18378;SDS011;27025;51.986;5.984;2023-02-25T06:45:28;16.13;;;4.03;;
18378;SDS011;27025;51.986;5.984;2023-02-25T06:47:54;14.27;;;2.97;;
18378;SDS011;27025;51.986;5.984;2023-02-25T06:50:20;15.43;;;3.40;;
18378;SDS011;27025;51.986;5.984;2023-02-25T06:52:46;16.90;;;3.30;;
18378;SDS011;27025;51.986;5.984;2023-02-25T06:55:12;15.87;;;3.80;;
18378;SDS011;27025;51.986;5.984;2023-02-25T06:57:38;16.83;;;3.50;;
18378;SDS011;27025;51.986;5.984;2023-02-25T07:00:04;21.80;;;4.13;;
18378;SDS011;27025;51.986;5.984;2023-02-25T07:02:30;16.40;;;3.83;;
18378;SDS011;27025;51.986;5.984;2023-02-25T07:04:56;16.77;;;3.77;;
18378;SDS011;27025;51.986;5.984;2023-02-25T07:07:24;18.87;;;3.87;;
18378;SDS011;27025;51.986;5.984;2023-02-25T07:09:50;19.80;;;3.10;;
18378;SDS011;27025;51.986;5.984;2023-02-25T07:12:16;23.63;;;4.37;;
18378;SDS011;27025;51.986;5.984;2023-02-25T07:14:43;16.07;;;3.57;;
18378;SDS011;27025;51.986;5.984;2023-02-25T07:17:09;18.33;;;3.33;;
18378;SDS011;27025;51.986;5.984;2023-02-25T07:19:35;17.47;;;3.80;;
18378;SDS011;27025;51.986;5.984;2023-02-25T07:22:01;18.43;;;3.17;;
18378;SDS011;27025;51.986;5.984;2023-02-25T07:24:29;14.53;;;3.30;;
18378;SDS011;27025;51.986;5.984;2023-02-25T07:26:55;14.53;;;3.53;;
18378;SDS011;27025;51.986;5.984;2023-02-25T07:29:21;14.83;;;2.90;;
18378;SDS011;27025;51.986;5.984;2023-02-25T07:31:47;18.77;;;3.77;;
18378;SDS011;27025;51.986;5.984;2023-02-25T07:34:14;15.27;;;3.40;;
18378;SDS011;27025;51.986;5.984;2023-02-25T07:36:40;15.70;;;3.03;;
18378;SDS011;27025;51.986;5.984;2023-02-25T07:39:07;14.83;;;3.30;;
18378;SDS011;27025;51.986;5.984;2023-02-25T07:41:34;11.80;;;2.67;;
18378;SDS011;27025;51.986;5.984;2023-02-25T07:44:00;20.90;;;3.50;;
18378;SDS011;27025;51.986;5.984;2023-02-25T07:46:26;18.23;;;3.33;;
18378;SDS011;27025;51.986;5.984;2023-02-25T07:48:52;15.40;;;3.40;;
18378;SDS011;27025;51.986;5.984;2023-02-25T07:51:19;16.87;;;3.30;;
18378;SDS011;27025;51.986;5.984;2023-02-25T07:53:46;11.37;;;2.87;;
18378;SDS011;27025;51.986;5.984;2023-02-25T07:56:13;12.63;;;2.83;;
18378;SDS011;27025;51.986;5.984;2023-02-25T07:58:39;11.90;;;2.83;;
18378;SDS011;27025;51.986;5.984;2023-02-25T08:01:24;11.30;;;2.73;;
18378;SDS011;27025;51.986;5.984;2023-02-25T08:03:51;14.57;;;3.20;;
18378;SDS011;27025;51.986;5.984;2023-02-25T08:06:17;16.43;;;2.70;;
18378;SDS011;27025;51.986;5.984;2023-02-25T08:08:43;16.73;;;2.97;;
18378;SDS011;27025;51.986;5.984;2023-02-25T08:11:10;11.67;;;3.10;;
18378;SDS011;27025;51.986;5.984;2023-02-25T08:13:36;16.60;;;3.20;;
18378;SDS011;27025;51.986;5.984;2023-02-25T08:16:03;14.00;;;2.90;;
18378;SDS011;27025;51.986;5.984;2023-02-25T08:18:30;17.23;;;3.10;;
18378;SDS011;27025;51.986;5.984;2023-02-25T08:20:56;9.93;;;2.53;;
18378;SDS011;27025;51.986;5.984;2023-02-25T08:23:25;10.40;;;2.60;;
18378;SDS011;27025;51.986;5.984;2023-02-25T08:25:52;11.97;;;2.97;;
18378;SDS011;27025;51.986;5.984;2023-02-25T08:28:19;15.00;;;2.83;;
18378;SDS011;27025;51.986;5.984;2023-02-25T08:30:45;11.83;;;2.87;;
18378;SDS011;27025;51.986;5.984;2023-02-25T08:33:11;11.97;;;2.80;;
18378;SDS011;27025;51.986;5.984;2023-02-25T08:35:37;14.70;;;3.07;;
18378;SDS011;27025;51.986;5.984;2023-02-25T08:38:03;16.23;;;3.03;;
18378;SDS011;27025;51.986;5.984;2023-02-25T08:40:29;11.97;;;2.03;;
18378;SDS011;27025;51.986;5.984;2023-02-25T08:42:56;10.20;;;2.23;;
18378;SDS011;27025;51.986;5.984;2023-02-25T08:45:22;6.90;;;2.20;;
18378;SDS011;27025;51.986;5.984;2023-02-25T08:47:48;7.90;;;1.63;;
18378;SDS011;27025;51.986;5.984;2023-02-25T08:50:14;6.23;;;1.67;;
18378;SDS011;27025;51.986;5.984;2023-02-25T08:52:43;9.77;;;2.07;;
18378;SDS011;27025;51.986;5.984;2023-02-25T08:55:10;6.33;;;1.97;;
18378;SDS011;27025;51.986;5.984;2023-02-25T08:57:40;7.80;;;1.80;;
18378;SDS011;27025;51.986;5.984;2023-02-25T09:00:06;4.17;;;1.43;;
18378;SDS011;27025;51.986;5.984;2023-02-25T09:02:33;4.67;;;1.70;;
18378;SDS011;27025;51.986;5.984;2023-02-25T09:04:59;7.13;;;1.70;;
18378;SDS011;27025;51.986;5.984;2023-02-25T09:07:26;4.40;;;1.30;;
18378;SDS011;27025;51.986;5.984;2023-02-25T09:09:52;7.63;;;1.50;;
18378;SDS011;27025;51.986;5.984;2023-02-25T09:12:18;4.80;;;1.70;;
18378;SDS011;27025;51.986;5.984;2023-02-25T09:14:44;4.00;;;1.13;;
18378;SDS011;27025;51.986;5.984;2023-02-25T09:17:10;5.90;;;1.50;;
18378;SDS011;27025;51.986;5.984;2023-02-25T09:19:36;7.30;;;1.60;;
18378;SDS011;27025;51.986;5.984;2023-02-25T09:22:03;5.20;;;1.30;;
18378;SDS011;27025;51.986;5.984;2023-02-25T09:24:29;7.97;;;1.47;;
18378;SDS011;27025;51.986;5.984;2023-02-25T09:26:57;3.40;;;1.40;;
18378;SDS011;27025;51.986;5.984;2023-02-25T09:29:24;3.90;;;1.10;;
18378;SDS011;27025;51.986;5.984;2023-02-25T09:31:50;3.07;;;1.13;;
18378;SDS011;27025;51.986;5.984;2023-02-25T09:34:17;2.57;;;1.10;;
18378;SDS011;27025;51.986;5.984;2023-02-25T09:36:44;8.73;;;1.63;;
18378;SDS011;27025;51.986;5.984;2023-02-25T09:39:10;4.70;;;1.60;;
18378;SDS011;27025;51.986;5.984;2023-02-25T09:41:54;4.07;;;1.30;;
18378;SDS011;27025;51.986;5.984;2023-02-25T09:44:28;6.47;;;2.00;;
18378;SDS011;27025;51.986;5.984;2023-02-25T09:47:03;3.23;;;1.20;;
18378;SDS011;27025;51.986;5.984;2023-02-25T09:52:00;3.63;;;1.20;;
18378;SDS011;27025;51.986;5.984;2023-02-25T09:54:33;3.53;;;1.40;;
18378;SDS011;27025;51.986;5.984;2023-02-25T09:57:00;5.83;;;1.73;;
18378;SDS011;27025;51.986;5.984;2023-02-25T09:59:26;4.47;;;1.50;;
18378;SDS011;27025;51.986;5.984;2023-02-25T10:01:54;2.33;;;1.27;;
18378;SDS011;27025;51.986;5.984;2023-02-25T10:04:32;3.57;;;1.20;;
18378;SDS011;27025;51.986;5.984;2023-02-25T10:07:06;3.70;;;1.10;;
18378;SDS011;27025;51.986;5.984;2023-02-25T10:09:46;3.58;;;1.40;;
18378;SDS011;27025;51.986;5.984;2023-02-25T10:12:22;2.85;;;1.20;;
18378;SDS011;27025;51.986;5.984;2023-02-25T10:15:12;4.60;;;1.63;;
18378;SDS011;27025;51.986;5.984;2023-02-25T10:20:18;5.10;;;1.43;;
18378;SDS011;27025;51.986;5.984;2023-02-25T10:22:51;4.32;;;1.60;;
18378;SDS011;27025;51.986;5.984;2023-02-25T10:25:24;4.78;;;1.60;;
18378;SDS011;27025;51.986;5.984;2023-02-25T10:33:14;5.32;;;3.10;;
18378;SDS011;27025;51.986;5.984;2023-02-25T10:35:41;10.70;;;1.97;;
18378;SDS011;27025;51.986;5.984;2023-02-25T10:38:10;4.90;;;1.70;;
18378;SDS011;27025;51.986;5.984;2023-02-25T10:40:36;4.63;;;1.93;;
18378;SDS011;27025;51.986;5.984;2023-02-25T10:43:21;7.25;;;2.30;;
18378;SDS011;27025;51.986;5.984;2023-02-25T10:48:37;6.38;;;1.52;;
18378;SDS011;27025;51.986;5.984;2023-02-25T10:51:06;4.72;;;1.50;;
18378;SDS011;27025;51.986;5.984;2023-02-25T10:53:36;7.10;;;1.75;;
18378;SDS011;27025;51.986;5.984;2023-02-25T10:56:03;6.20;;;1.90;;
18378;SDS011;27025;51.986;5.984;2023-02-25T10:58:39;5.43;;;1.77;;
18378;SDS011;27025;51.986;5.984;2023-02-25T11:01:08;6.88;;;1.70;;
18378;SDS011;27025;51.986;5.984;2023-02-25T11:03:43;7.32;;;1.73;;
18378;SDS011;27025;51.986;5.984;2023-02-25T11:06:21;5.37;;;1.70;;
18378;SDS011;27025;51.986;5.984;2023-02-25T11:08:47;9.10;;;2.17;;
18378;SDS011;27025;51.986;5.984;2023-02-25T11:13:40;7.45;;;2.10;;
18378;SDS011;27025;51.986;5.984;2023-02-25T11:16:07;5.83;;;1.90;;
18378;SDS011;27025;51.986;5.984;2023-02-25T11:18:33;4.75;;;1.70;;
18378;SDS011;27025;51.986;5.984;2023-02-25T11:21:25;6.15;;;1.80;;
18378;SDS011;27025;51.986;5.984;2023-02-25T11:23:49;4.60;;;1.90;;
18378;SDS011;27025;51.986;5.984;2023-02-25T11:26:25;5.10;;;1.80;;
18378;SDS011;27025;51.986;5.984;2023-02-25T11:28:52;7.05;;;2.10;;
18378;SDS011;27025;51.986;5.984;2023-02-25T11:31:23;7.57;;;2.20;;
18378;SDS011;27025;51.986;5.984;2023-02-25T11:33:55;6.32;;;2.10;;
18378;SDS011;27025;51.986;5.984;2023-02-25T11:36:23;6.07;;;1.90;;
18378;SDS011;27025;51.986;5.984;2023-02-25T11:42:17;6.15;;;2.20;;
18378;SDS011;27025;51.986;5.984;2023-02-25T11:44:46;6.75;;;1.80;;
18378;SDS011;27025;51.986;5.984;2023-02-25T12:00:36;5.95;;;2.13;;
18378;SDS011;27025;51.986;5.984;2023-02-25T12:08:16;8.73;;;2.10;;
18378;SDS011;27025;51.986;5.984;2023-02-25T12:26:50;7.28;;;2.25;;
18378;SDS011;27025;51.986;5.984;2023-02-25T12:37:22;8.20;;;2.60;;
18378;SDS011;27025;51.986;5.984;2023-02-25T12:39:57;9.25;;;2.70;;
18378;SDS011;27025;51.986;5.984;2023-02-25T12:47:45;11.88;;;2.60;;
18378;SDS011;27025;51.986;5.984;2023-02-25T12:52:46;9.77;;;2.60;;
18378;SDS011;27025;51.986;5.984;2023-02-25T13:11:05;10.57;;;2.83;;
18378;SDS011;27025;51.986;5.984;2023-02-25T13:16:32;9.30;;;3.03;;
18378;SDS011;27025;51.986;5.984;2023-02-25T13:21:42;8.20;;;2.60;;
18378;SDS011;27025;51.986;5.984;2023-02-25T13:24:18;6.43;;;2.38;;
18378;SDS011;27025;51.986;5.984;2023-02-25T13:31:53;7.05;;;2.28;;
18378;SDS011;27025;51.986;5.984;2023-02-25T13:34:35;7.28;;;2.30;;
18378;SDS011;27025;51.986;5.984;2023-02-25T14:08:38;5.60;;;1.80;;
18378;SDS011;27025;51.986;5.984;2023-02-25T14:13:41;6.75;;;1.73;;
18378;SDS011;27025;51.986;5.984;2023-02-25T14:27:21;4.53;;;1.58;;
18378;SDS011;27025;51.986;5.984;2023-02-25T14:38:13;5.32;;;1.90;;
18378;SDS011;27025;51.986;5.984;2023-02-25T14:45:33;5.28;;;1.50;;
18378;SDS011;27025;51.986;5.984;2023-02-25T14:48:04;4.63;;;1.70;;
18378;SDS011;27025;51.986;5.984;2023-02-25T14:53:37;5.90;;;2.00;;
18378;SDS011;27025;51.986;5.984;2023-02-25T14:56:19;4.43;;;1.70;;
18378;SDS011;27025;51.986;5.984;2023-02-25T15:04:02;5.88;;;1.77;;
18378;SDS011;27025;51.986;5.984;2023-02-25T15:11:56;3.05;;;1.60;;
18378;SDS011;27025;51.986;5.984;2023-02-25T15:24:38;6.10;;;1.88;;
18378;SDS011;27025;51.986;5.984;2023-02-25T15:30:24;6.13;;;1.92;;
18378;SDS011;27025;51.986;5.984;2023-02-25T15:35:21;5.10;;;1.80;;
18378;SDS011;27025;51.986;5.984;2023-02-25T15:42:48;4.63;;;1.88;;
18378;SDS011;27025;51.986;5.984;2023-02-25T15:56:43;5.57;;;2.13;;
18378;SDS011;27025;51.986;5.984;2023-02-25T16:00:59;6.75;;;2.03;;
18378;SDS011;27025;51.986;5.984;2023-02-25T16:06:01;4.97;;;2.00;;
18378;SDS011;27025;51.986;5.984;2023-02-25T16:08:30;9.50;;;2.30;;
18378;SDS011;27025;51.986;5.984;2023-02-25T16:11:00;6.90;;;2.22;;
18378;SDS011;27025;51.986;5.984;2023-02-25T16:13:30;6.43;;;2.20;;
18378;SDS011;27025;51.986;5.984;2023-02-25T16:15:56;6.55;;;2.28;;
18378;SDS011;27025;51.986;5.984;2023-02-25T16:20:59;5.88;;;2.10;;
18378;SDS011;27025;51.986;5.984;2023-02-25T16:23:28;6.18;;;2.45;;
18378;SDS011;27025;51.986;5.984;2023-02-25T16:26:12;8.25;;;2.25;;
18378;SDS011;27025;51.986;5.984;2023-02-25T16:28:52;5.43;;;2.17;;
18378;SDS011;27025;51.986;5.984;2023-02-25T16:31:29;4.68;;;2.05;;
18378;SDS011;27025;51.986;5.984;2023-02-25T16:34:04;6.70;;;2.20;;
18378;SDS011;27025;51.986;5.984;2023-02-25T16:39:02;7.57;;;2.20;;
18378;SDS011;27025;51.986;5.984;2023-02-25T16:41:29;6.95;;;2.30;;
18378;SDS011;27025;51.986;5.984;2023-02-25T16:43:56;7.85;;;2.33;;
18378;SDS011;27025;51.986;5.984;2023-02-25T16:46:26;7.80;;;2.45;;
18378;SDS011;27025;51.986;5.984;2023-02-25T16:48:54;8.57;;;2.33;;
18378;SDS011;27025;51.986;5.984;2023-02-25T16:51:22;10.02;;;2.25;;
18378;SDS011;27025;51.986;5.984;2023-02-25T16:53:52;9.65;;;2.30;;
18378;SDS011;27025;51.986;5.984;2023-02-25T16:56:19;9.43;;;2.25;;
18378;SDS011;27025;51.986;5.984;2023-02-25T16:59:03;11.00;;;2.88;;
18378;SDS011;27025;51.986;5.984;2023-02-25T17:01:29;8.05;;;2.30;;
18378;SDS011;27025;51.986;5.984;2023-02-25T17:04:10;9.90;;;4.38;;
18378;SDS011;27025;51.986;5.984;2023-02-25T17:06:37;8.43;;;2.35;;
18378;SDS011;27025;51.986;5.984;2023-02-25T17:09:03;7.75;;;2.38;;
18378;SDS011;27025;51.986;5.984;2023-02-25T17:11:29;9.73;;;2.80;;
18378;SDS011;27025;51.986;5.984;2023-02-25T17:13:56;8.00;;;2.85;;
18378;SDS011;27025;51.986;5.984;2023-02-25T17:16:29;7.32;;;2.30;;
18378;SDS011;27025;51.986;5.984;2023-02-25T17:18:59;7.70;;;2.50;;
18378;SDS011;27025;51.986;5.984;2023-02-25T17:21:33;8.68;;;2.45;;
18378;SDS011;27025;51.986;5.984;2023-02-25T17:24:00;9.35;;;2.72;;
18378;SDS011;27025;51.986;5.984;2023-02-25T17:26:27;6.43;;;2.42;;
18378;SDS011;27025;51.986;5.984;2023-02-25T17:28:54;7.93;;;2.35;;
18378;SDS011;27025;51.986;5.984;2023-02-25T17:31:22;8.68;;;2.60;;
18378;SDS011;27025;51.986;5.984;2023-02-25T17:34:00;8.17;;;2.50;;
18378;SDS011;27025;51.986;5.984;2023-02-25T17:36:32;9.10;;;2.50;;
18378;SDS011;27025;51.986;5.984;2023-02-25T17:39:00;6.50;;;2.30;;
18378;SDS011;27025;51.986;5.984;2023-02-25T17:41:28;8.20;;;2.45;;
18378;SDS011;27025;51.986;5.984;2023-02-25T17:43:54;10.60;;;3.00;;
18378;SDS011;27025;51.986;5.984;2023-02-25T17:46:31;7.95;;;3.00;;
18378;SDS011;27025;51.986;5.984;2023-02-25T17:49:01;7.72;;;2.88;;
18378;SDS011;27025;51.986;5.984;2023-02-25T17:51:36;9.35;;;3.05;;
18378;SDS011;27025;51.986;5.984;2023-02-25T17:54:06;9.00;;;2.77;;
18378;SDS011;27025;51.986;5.984;2023-02-25T17:56:33;9.65;;;2.90;;
18378;SDS011;27025;51.986;5.984;2023-02-25T17:59:02;8.50;;;3.13;;
18378;SDS011;27025;51.986;5.984;2023-02-25T18:01:29;9.35;;;3.10;;
18378;SDS011;27025;51.986;5.984;2023-02-25T18:03:56;9.13;;;3.17;;
18378;SDS011;27025;51.986;5.984;2023-02-25T18:06:37;9.10;;;3.40;;
18378;SDS011;27025;51.986;5.984;2023-02-25T18:09:04;10.67;;;3.27;;
18378;SDS011;27025;51.986;5.984;2023-02-25T18:11:31;7.72;;;2.70;;
18378;SDS011;27025;51.986;5.984;2023-02-25T18:14:03;7.30;;;2.55;;
18378;SDS011;27025;51.986;5.984;2023-02-25T18:16:43;7.22;;;2.67;;
18378;SDS011;27025;51.986;5.984;2023-02-25T18:19:55;7.75;;;2.78;;
18378;SDS011;27025;51.986;5.984;2023-02-25T18:21:56;7.65;;;2.97;;
18378;SDS011;27025;51.986;5.984;2023-02-25T18:24:27;8.20;;;3.00;;
18378;SDS011;27025;51.986;5.984;2023-02-25T18:29:29;9.32;;;3.63;;
18378;SDS011;27025;51.986;5.984;2023-02-25T18:31:55;10.02;;;4.03;;
18378;SDS011;27025;51.986;5.984;2023-02-25T18:34:21;9.25;;;3.88;;
18378;SDS011;27025;51.986;5.984;2023-02-25T18:36:47;9.27;;;3.67;;
18378;SDS011;27025;51.986;5.984;2023-02-25T18:39:13;11.10;;;3.83;;